createdAt,value
2023-03-19T00:01:06.749Z,6.20
2023-03-19T00:03:35.323Z,7.40
2023-03-19T00:06:04.236Z,4.10
2023-03-19T00:08:32.651Z,3.60
2023-03-19T00:11:06.980Z,5.80
2023-03-19T00:13:36.109Z,6.00
2023-03-19T00:16:09.174Z,7.00
2023-03-19T00:18:38.417Z,5.00
2023-03-19T00:21:07.487Z,3.50
2023-03-19T00:23:37.788Z,6.50
2023-03-19T00:26:06.919Z,2.70
2023-03-19T00:28:41.590Z,4.40
2023-03-19T00:31:12.958Z,2.50
2023-03-19T00:33:41.600Z,3.10
2023-03-19T00:36:10.638Z,2.90
2023-03-19T00:38:41.570Z,4.90
2023-03-19T00:41:10.341Z,5.80
2023-03-19T00:43:39.125Z,3.00
2023-03-19T00:46:07.960Z,4.00
2023-03-19T00:48:37.865Z,3.70
2023-03-19T00:51:08.774Z,5.00
2023-03-19T00:53:42.448Z,7.80
2023-03-19T00:56:12.311Z,5.90
2023-03-19T00:58:42.561Z,5.00
2023-03-19T01:01:14.365Z,6.90
2023-03-19T01:03:45.822Z,7.60
2023-03-19T01:06:14.296Z,7.20
2023-03-19T01:08:45.024Z,7.30
2023-03-19T01:11:18.885Z,7.70
2023-03-19T01:13:48.276Z,10.50
2023-03-19T01:16:21.139Z,11.20
2023-03-19T01:18:49.808Z,9.80
2023-03-19T01:21:18.903Z,8.40
2023-03-19T01:23:49.589Z,4.30
2023-03-19T01:26:18.639Z,11.50
2023-03-19T01:28:48.792Z,5.50
2023-03-19T01:31:19.151Z,7.70
2023-03-19T01:33:56.104Z,6.60
2023-03-19T01:36:47.555Z,9.00
2023-03-19T01:39:19.151Z,5.20
2023-03-19T01:41:48.698Z,8.80
2023-03-19T01:44:38.942Z,6.60
2023-03-19T01:47:22.531Z,9.60
2023-03-19T01:50:22.457Z,9.00
2023-03-19T01:52:54.559Z,4.90
2023-03-19T01:55:28.851Z,4.10
2023-03-19T01:58:15.308Z,7.40
2023-03-19T02:01:09.038Z,8.40
2023-03-19T02:03:40.042Z,5.10
2023-03-19T02:06:30.539Z,7.50
2023-03-19T02:09:01.056Z,8.50
2023-03-19T02:11:30.408Z,10.10
2023-03-19T02:13:59.924Z,7.40
2023-03-19T02:16:28.984Z,9.10
2023-03-19T02:18:57.859Z,5.00
2023-03-19T02:21:27.351Z,6.20
2023-03-19T02:24:08.116Z,6.90
2023-03-19T02:26:50.816Z,6.20
2023-03-19T02:29:19.618Z,9.40
2023-03-19T02:31:48.825Z,9.50
2023-03-19T02:34:21.505Z,11.80
2023-03-19T02:37:21.498Z,11.40
2023-03-19T02:39:58.073Z,10.10
2023-03-19T02:42:27.825Z,13.80
2023-03-19T02:44:57.151Z,8.80
2023-03-19T02:47:33.191Z,9.90
2023-03-19T02:50:01.666Z,7.50
2023-03-19T02:52:30.799Z,11.70
2023-03-19T02:54:59.202Z,8.50
2023-03-19T02:57:27.868Z,9.60
2023-03-19T03:00:02.885Z,10.80
2023-03-19T03:02:32.884Z,6.60
2023-03-19T03:05:01.301Z,10.40
2023-03-19T03:07:30.066Z,8.00
2023-03-19T03:09:59.798Z,9.50
2023-03-19T03:12:28.976Z,11.10
2023-03-19T03:14:58.905Z,9.80
2023-03-19T03:17:27.360Z,7.00
2023-03-19T03:19:58.521Z,7.50
2023-03-19T03:22:27.810Z,8.30
2023-03-19T03:24:56.736Z,7.00
2023-03-19T03:27:25.311Z,4.10
2023-03-19T03:29:53.883Z,6.80
2023-03-19T03:32:22.574Z,6.80
2023-03-19T03:34:52.732Z,6.10
2023-03-19T03:37:21.591Z,8.10
2023-03-19T03:39:50.052Z,7.40
2023-03-19T03:42:20.330Z,8.50
2023-03-19T03:44:48.856Z,8.30
2023-03-19T03:47:20.977Z,12.90
2023-03-19T03:49:49.528Z,11.60
2023-03-19T03:52:18.073Z,12.90
2023-03-19T03:54:46.508Z,7.90
2023-03-19T03:57:15.147Z,13.00
2023-03-19T03:59:46.686Z,13.90
2023-03-19T04:02:15.660Z,11.20
2023-03-19T04:04:44.513Z,12.50
2023-03-19T04:07:14.344Z,11.00
2023-03-19T04:09:46.613Z,10.50
2023-03-19T04:12:15.292Z,9.60
2023-03-19T04:14:49.274Z,13.70
2023-03-19T04:17:18.457Z,9.20
2023-03-19T04:19:47.871Z,9.70
2023-03-19T04:22:17.377Z,8.70
2023-03-19T04:24:46.309Z,13.90
2023-03-19T04:27:14.778Z,8.10
2023-03-19T04:29:44.281Z,9.80
2023-03-19T04:32:13.109Z,8.70
2023-03-19T04:34:42.065Z,10.60
2023-03-19T04:37:11.699Z,8.20
2023-03-19T04:39:47.208Z,7.50
2023-03-19T04:42:16.458Z,9.60
2023-03-19T04:45:01.924Z,13.30
2023-03-19T04:47:31.120Z,6.50
2023-03-19T04:50:01.223Z,7.80
2023-03-19T04:52:31.431Z,11.60
2023-03-19T04:55:00.856Z,7.60
2023-03-19T04:57:30.324Z,8.30
2023-03-19T04:59:59.427Z,10.20
2023-03-19T05:02:28.357Z,10.40
2023-03-19T05:04:57.557Z,13.00
2023-03-19T05:07:26.663Z,6.20
2023-03-19T05:09:55.216Z,9.50
2023-03-19T05:12:24.608Z,11.50
2023-03-19T05:14:53.333Z,10.70
2023-03-19T05:17:45.162Z,7.70
2023-03-19T05:20:26.007Z,7.60
2023-03-19T05:23:03.196Z,14.50
2023-03-19T05:25:39.012Z,14.60
2023-03-19T05:28:09.072Z,11.90
2023-03-19T05:30:38.612Z,13.10
2023-03-19T05:33:13.666Z,13.20
2023-03-19T05:35:46.162Z,10.90
2023-03-19T05:41:05.330Z,12.00
2023-03-19T05:43:42.071Z,14.60
2023-03-19T05:46:14.749Z,12.40
2023-03-19T05:48:44.373Z,11.60
2023-03-19T05:51:17.429Z,15.10
2023-03-19T05:53:47.486Z,18.10
2023-03-19T05:56:42.381Z,16.50
2023-03-19T05:59:36.766Z,15.40
2023-03-19T06:02:26.213Z,13.20
2023-03-19T06:05:01.214Z,15.30
2023-03-19T06:07:31.636Z,12.30
2023-03-19T06:10:00.730Z,9.50
2023-03-19T06:12:29.920Z,10.50
2023-03-19T06:15:17.831Z,13.30
2023-03-19T06:17:46.956Z,9.90
2023-03-19T06:20:17.176Z,15.70
2023-03-19T06:22:46.036Z,10.60
2023-03-19T06:25:16.472Z,12.10
2023-03-19T06:27:46.940Z,9.50
2023-03-19T06:30:25.938Z,12.70
2023-03-19T06:32:59.606Z,10.80
2023-03-19T06:35:28.300Z,11.60
2023-03-19T06:37:57.215Z,10.20
2023-03-19T06:40:25.596Z,9.70
2023-03-19T06:42:54.270Z,14.60
2023-03-19T06:45:29.237Z,12.70
2023-03-19T06:47:58.342Z,7.10
2023-03-19T06:50:27.528Z,12.30
2023-03-19T06:52:56.017Z,10.20
2023-03-19T06:55:24.538Z,10.90
2023-03-19T06:57:53.001Z,13.70
2023-03-19T07:00:22.134Z,11.90
2023-03-19T07:02:51.613Z,12.80
2023-03-19T07:05:22.755Z,13.70
2023-03-19T07:07:51.793Z,13.50
2023-03-19T07:10:20.894Z,13.30
2023-03-19T07:12:50.970Z,13.60
2023-03-19T07:15:21.686Z,11.00
2023-03-19T07:17:50.518Z,17.10
2023-03-19T07:20:22.629Z,15.60
2023-03-19T07:22:52.007Z,17.10
2023-03-19T07:25:20.898Z,14.50
2023-03-19T07:27:50.120Z,18.10
2023-03-19T07:30:18.904Z,12.60
2023-03-19T07:32:47.926Z,15.00
2023-03-19T07:35:16.863Z,14.20
2023-03-19T07:37:45.692Z,13.40
2023-03-19T07:40:20.130Z,13.00
2023-03-19T07:42:49.935Z,18.10
2023-03-19T07:45:18.438Z,12.60
2023-03-19T07:47:50.251Z,18.20
2023-03-19T07:50:19.704Z,16.60
2023-03-19T07:52:49.428Z,19.60
2023-03-19T07:55:17.919Z,20.10
2023-03-19T07:57:46.683Z,19.20
2023-03-19T08:00:16.016Z,19.80
2023-03-19T08:02:47.748Z,19.10
2023-03-19T08:05:17.053Z,16.20
2023-03-19T08:07:49.728Z,23.20
2023-03-19T08:10:18.324Z,19.50
2023-03-19T08:12:46.997Z,11.90
2023-03-19T08:15:16.392Z,12.20
2023-03-19T08:17:47.792Z,21.50
2023-03-19T08:20:17.157Z,21.00
2023-03-19T08:22:49.683Z,19.80
2023-03-19T08:25:18.941Z,13.50
2023-03-19T08:27:48.637Z,23.70
2023-03-19T08:30:17.822Z,17.60
2023-03-19T08:32:46.537Z,14.30
2023-03-19T08:35:21.381Z,15.00
2023-03-19T08:37:49.838Z,18.70
2023-03-19T08:40:18.567Z,10.70
2023-03-19T08:42:47.538Z,16.00
2023-03-19T08:45:16.357Z,13.10
2023-03-19T08:47:44.765Z,15.30
2023-03-19T08:50:16.120Z,11.80
2023-03-19T08:52:44.938Z,15.30
2023-03-19T08:55:13.708Z,12.80
2023-03-19T08:57:45.748Z,15.80
2023-03-19T09:00:15.272Z,19.70
2023-03-19T09:02:50.778Z,14.50
2023-03-19T09:05:26.312Z,15.50
2023-03-19T09:08:15.993Z,15.30
2023-03-19T09:10:51.558Z,14.20
2023-03-19T09:13:24.968Z,14.60
2023-03-19T09:15:53.808Z,12.00
2023-03-19T09:18:30.042Z,14.90
2023-03-19T09:20:58.907Z,14.90
2023-03-19T09:23:27.545Z,13.40
2023-03-19T09:25:55.967Z,16.60
2023-03-19T09:28:24.465Z,14.00
2023-03-19T09:30:53.197Z,18.30
2023-03-19T09:33:23.065Z,17.60
2023-03-19T09:35:55.684Z,15.10
2023-03-19T09:38:28.764Z,15.80
2023-03-19T09:41:21.656Z,19.60
2023-03-19T09:43:59.315Z,21.60
2023-03-19T09:46:30.659Z,10.50
2023-03-19T09:49:12.436Z,14.00
2023-03-19T09:51:53.014Z,12.80
2023-03-19T09:54:27.915Z,19.40
2023-03-19T09:57:00.507Z,17.00
2023-03-19T09:59:29.188Z,15.10
2023-03-19T10:02:31.122Z,20.90
2023-03-19T10:05:32.823Z,12.50
2023-03-19T10:08:33.068Z,17.00
2023-03-19T10:11:36.755Z,13.40
2023-03-19T10:14:05.826Z,16.40
2023-03-19T10:16:34.670Z,10.60
2023-03-19T10:19:04.477Z,17.20
2023-03-19T10:21:35.776Z,21.80
2023-03-19T10:24:12.563Z,11.60
2023-03-19T10:26:41.029Z,17.50
2023-03-19T10:29:19.104Z,10.70
2023-03-19T10:31:56.748Z,14.30
2023-03-19T10:34:38.024Z,13.90
2023-03-19T10:37:14.464Z,12.50
2023-03-19T10:39:48.725Z,14.60
2023-03-19T10:42:55.492Z,19.00
2023-03-19T10:45:30.347Z,14.20
2023-03-19T10:47:59.931Z,10.50
2023-03-19T10:50:39.129Z,10.40
2023-03-19T10:53:27.511Z,17.30
2023-03-19T10:56:07.609Z,12.20
2023-03-19T10:58:40.960Z,19.30
2023-03-19T11:01:12.361Z,11.00
2023-03-19T11:03:53.402Z,14.10
2023-03-19T11:06:41.849Z,13.60
2023-03-19T11:09:16.739Z,10.90
2023-03-19T11:14:25.698Z,13.60
2023-03-19T11:17:04.899Z,9.50
2023-03-19T11:19:39.610Z,15.40
2023-03-19T11:22:09.793Z,11.60
2023-03-19T11:24:39.965Z,17.50
2023-03-19T11:27:09.516Z,19.80
2023-03-19T11:29:43.674Z,20.20
2023-03-19T11:32:34.211Z,15.40
2023-03-19T11:35:22.219Z,19.50
2023-03-19T11:38:01.737Z,12.80
2023-03-19T11:40:55.629Z,12.50
2023-03-19T11:46:24.600Z,12.50
2023-03-19T11:49:35.442Z,15.50
2023-03-19T11:52:27.391Z,12.60
2023-03-19T11:55:02.869Z,15.30
2023-03-19T11:57:51.615Z,15.10
2023-03-19T12:00:42.958Z,8.10
2023-03-19T12:03:20.691Z,14.70
2023-03-19T12:05:52.357Z,14.60
2023-03-19T12:08:40.152Z,11.00
2023-03-19T12:11:10.910Z,15.20
2023-03-19T12:13:48.841Z,16.10
2023-03-19T12:16:46.457Z,17.90
2023-03-19T12:19:15.795Z,17.20
2023-03-19T12:22:15.212Z,13.00
2023-03-19T12:24:56.745Z,11.60
2023-03-19T12:27:30.737Z,14.90
2023-03-19T12:30:34.821Z,15.70
2023-03-19T12:33:15.788Z,17.90
2023-03-19T12:35:46.860Z,16.40
2023-03-19T12:38:21.287Z,14.40
2023-03-19T12:40:57.236Z,18.50
2023-03-19T12:43:46.337Z,16.70
2023-03-19T12:46:24.502Z,14.10
2023-03-19T12:49:06.920Z,15.00
2023-03-19T12:51:42.780Z,11.50
2023-03-19T12:54:36.345Z,15.80
2023-03-19T12:57:15.743Z,18.80
2023-03-19T12:59:48.979Z,13.80
2023-03-19T13:02:39.181Z,18.80
2023-03-19T13:05:15.504Z,11.90
2023-03-19T13:08:13.653Z,14.30
2023-03-19T13:10:42.021Z,14.40
2023-03-19T13:13:35.587Z,13.80
2023-03-19T13:16:15.494Z,13.70
2023-03-19T13:19:19.388Z,14.70
2023-03-19T13:21:53.428Z,14.70
2023-03-19T13:24:28.071Z,10.00
2023-03-19T13:26:56.706Z,13.20
2023-03-19T13:29:32.277Z,11.30
2023-03-19T13:32:25.253Z,15.80
2023-03-19T13:35:23.901Z,7.60
2023-03-19T13:37:57.191Z,15.00
2023-03-19T13:40:39.408Z,13.60
2023-03-19T13:43:28.586Z,16.30
2023-03-19T13:46:12.137Z,13.60
2023-03-19T13:48:50.549Z,14.60
2023-03-19T13:51:26.032Z,16.00
2023-03-19T13:54:13.787Z,13.00
2023-03-19T13:57:07.145Z,10.20
2023-03-19T13:59:38.917Z,20.60
2023-03-19T14:02:22.827Z,16.60
2023-03-19T14:04:53.229Z,15.10
2023-03-19T14:07:23.068Z,15.00
2023-03-19T14:09:57.760Z,11.00
2023-03-19T14:12:36.527Z,14.30
2023-03-19T14:15:25.301Z,14.70
2023-03-19T14:18:04.911Z,19.90
2023-03-19T14:20:47.624Z,12.70
2023-03-19T14:23:23.402Z,14.90
2023-03-19T14:26:17.078Z,11.00
2023-03-19T14:29:03.873Z,13.60
2023-03-19T14:31:46.219Z,13.90
2023-03-19T14:34:28.175Z,12.20
2023-03-19T14:37:15.124Z,15.70
2023-03-19T14:39:44.374Z,11.30
2023-03-19T14:42:22.586Z,13.60
2023-03-19T14:45:09.325Z,12.60
2023-03-19T14:47:49.960Z,14.80
2023-03-19T14:50:21.509Z,17.20
2023-03-19T14:53:15.105Z,12.80
2023-03-19T14:55:52.850Z,16.70
2023-03-19T14:58:23.672Z,18.50
2023-03-19T15:00:54.233Z,21.00
2023-03-19T15:03:33.594Z,15.60
2023-03-19T15:06:03.658Z,17.00
2023-03-19T15:08:38.124Z,16.10
2023-03-19T15:11:16.450Z,14.30
2023-03-19T15:14:12.838Z,16.70
2023-03-19T15:16:59.790Z,16.00
2023-03-19T15:19:30.072Z,15.40
2023-03-19T15:22:06.492Z,17.80
2023-03-19T15:24:36.408Z,16.20
2023-03-19T15:27:21.373Z,21.60
2023-03-19T15:29:51.648Z,15.20
2023-03-19T15:32:56.822Z,27.10
2023-03-19T15:35:33.998Z,19.20
2023-03-19T15:38:07.598Z,15.40
2023-03-19T15:40:37.164Z,18.70
2023-03-19T15:43:06.327Z,20.90
2023-03-19T15:45:35.419Z,12.10
2023-03-19T15:48:09.114Z,17.80
2023-03-19T15:53:11.964Z,20.00
2023-03-19T15:55:40.604Z,14.40
2023-03-19T15:58:12.477Z,22.90
2023-03-19T16:00:41.538Z,23.10
2023-03-19T16:03:19.530Z,23.00
2023-03-19T16:06:02.734Z,21.10
2023-03-19T16:08:34.492Z,21.80
2023-03-19T16:11:28.510Z,18.80
2023-03-19T16:13:58.877Z,17.90
2023-03-19T16:16:32.629Z,23.80
2023-03-19T16:19:01.415Z,17.60
2023-03-19T16:21:36.577Z,18.90
2023-03-19T16:24:20.339Z,22.90
2023-03-19T16:26:48.921Z,16.80
2023-03-19T16:29:41.956Z,20.40
2023-03-19T16:32:21.657Z,13.40
2023-03-19T16:34:54.836Z,20.60
2023-03-19T16:40:02.546Z,17.60
2023-03-19T16:45:15.553Z,17.30
2023-03-19T16:47:54.257Z,20.70
2023-03-19T16:50:29.501Z,29.00
2023-03-19T16:52:58.857Z,26.30
2023-03-19T16:55:35.299Z,21.60
2023-03-19T16:58:11.193Z,35.40
2023-03-19T17:00:39.581Z,23.90
2023-03-19T17:03:12.624Z,28.30
2023-03-19T17:05:42.126Z,26.90
2023-03-19T17:08:12.425Z,34.40
2023-03-19T17:10:50.973Z,23.90
2023-03-19T17:13:28.308Z,17.20
2023-03-19T17:15:59.929Z,16.40
2023-03-19T17:18:30.954Z,23.90
2023-03-19T17:21:06.542Z,17.90
2023-03-19T17:23:38.314Z,20.50
2023-03-19T17:26:21.606Z,17.80
2023-03-19T17:28:53.822Z,23.60
2023-03-19T17:31:27.765Z,14.30
2023-03-19T17:34:06.686Z,21.60
2023-03-19T17:36:38.563Z,26.10
2023-03-19T17:39:07.904Z,19.30
2023-03-19T17:41:43.526Z,24.60
2023-03-19T17:44:12.278Z,17.90
2023-03-19T17:46:43.967Z,16.70
2023-03-19T17:49:17.227Z,30.80
2023-03-19T17:51:45.980Z,14.70
2023-03-19T17:54:20.080Z,20.10
2023-03-19T17:56:49.363Z,18.10
2023-03-19T17:59:17.788Z,21.30
2023-03-19T18:01:49.375Z,17.30
2023-03-19T18:04:19.967Z,20.60
2023-03-19T18:06:50.487Z,21.40
2023-03-19T18:09:23.994Z,22.60
2023-03-19T18:11:52.516Z,24.50
2023-03-19T18:14:21.360Z,22.90
2023-03-19T18:16:51.825Z,17.80
2023-03-19T18:19:27.719Z,18.40
2023-03-19T18:21:56.237Z,25.60
2023-03-19T18:24:25.039Z,27.40
2023-03-19T18:26:53.554Z,22.90
2023-03-19T18:29:24.999Z,20.90
2023-03-19T18:31:53.757Z,17.10
2023-03-19T18:34:22.216Z,18.90
2023-03-19T18:36:51.207Z,19.70
2023-03-19T18:39:19.985Z,20.40
2023-03-19T18:41:48.600Z,14.80
2023-03-19T18:44:18.786Z,20.20
2023-03-19T18:46:47.155Z,24.30
2023-03-19T18:49:21.188Z,13.80
2023-03-19T18:52:01.478Z,24.70
2023-03-19T18:54:32.175Z,23.20
2023-03-19T18:57:06.023Z,25.00
2023-03-19T18:59:34.563Z,23.90
2023-03-19T19:02:25.748Z,21.20
2023-03-19T19:04:54.198Z,13.50
2023-03-19T19:07:22.658Z,14.60
2023-03-19T19:09:52.322Z,15.90
2023-03-19T19:12:22.050Z,23.70
2023-03-19T19:14:50.469Z,18.30
2023-03-19T19:17:21.597Z,15.90
2023-03-19T19:19:51.527Z,19.60
2023-03-19T19:22:20.623Z,23.70
2023-03-19T19:24:49.054Z,20.40
2023-03-19T19:27:20.462Z,18.00
2023-03-19T19:29:51.337Z,14.40
2023-03-19T19:32:25.104Z,20.00
2023-03-19T19:34:53.740Z,19.70
2023-03-19T19:37:30.152Z,15.30
2023-03-19T19:39:59.575Z,21.70
2023-03-19T19:42:29.546Z,15.90
2023-03-19T19:45:03.284Z,17.90
2023-03-19T19:47:32.760Z,12.70
2023-03-19T19:50:09.877Z,19.70
2023-03-19T19:52:39.603Z,14.90
2023-03-19T19:55:08.718Z,16.50
2023-03-19T19:57:39.094Z,19.60
2023-03-19T20:00:19.155Z,23.60
2023-03-19T20:02:49.813Z,20.40
2023-03-19T20:05:23.448Z,22.00
2023-03-19T20:07:55.202Z,20.00
2023-03-19T20:10:29.077Z,19.70
2023-03-19T20:12:59.975Z,22.80
2023-03-19T20:15:30.781Z,17.50
2023-03-19T20:18:03.289Z,17.40
2023-03-19T20:20:33.265Z,18.30
2023-03-19T20:23:02.352Z,19.80
2023-03-19T20:25:33.018Z,22.00
2023-03-19T20:28:01.838Z,20.30
2023-03-19T20:30:38.970Z,16.30
2023-03-19T20:33:07.850Z,17.90
2023-03-19T20:35:38.866Z,16.20
2023-03-19T20:38:07.461Z,11.20
2023-03-19T20:40:44.886Z,12.30
2023-03-19T20:43:16.993Z,18.70
2023-03-19T20:45:46.333Z,13.00
2023-03-19T20:48:17.331Z,20.50
2023-03-19T20:50:46.955Z,16.00
2023-03-19T20:53:15.993Z,9.20
2023-03-19T20:55:45.099Z,19.30
2023-03-19T20:58:21.317Z,17.80
2023-03-19T21:00:49.996Z,9.70
2023-03-19T21:03:22.515Z,8.30
2023-03-19T21:05:52.520Z,8.60
2023-03-19T21:08:29.876Z,10.10
2023-03-19T21:10:58.540Z,7.30
2023-03-19T21:13:27.791Z,14.00
2023-03-19T21:15:56.887Z,10.70
2023-03-19T21:18:25.672Z,11.60
2023-03-19T21:20:55.330Z,15.20
2023-03-19T21:23:37.465Z,12.10
2023-03-19T21:26:17.253Z,12.80
2023-03-19T21:28:46.886Z,11.80
2023-03-19T21:31:19.210Z,13.20
2023-03-19T21:33:49.485Z,9.10
2023-03-19T21:36:18.009Z,10.40
2023-03-19T21:38:46.754Z,10.30
2023-03-19T21:41:37.504Z,9.50
2023-03-19T21:44:08.144Z,13.50
2023-03-19T21:46:37.069Z,9.10
2023-03-19T21:49:06.151Z,13.00
2023-03-19T21:51:34.637Z,11.50
2023-03-19T21:54:03.216Z,11.90
2023-03-19T21:56:38.156Z,10.80
2023-03-19T21:59:15.258Z,13.40
2023-03-19T22:01:43.883Z,10.10
2023-03-19T22:04:12.346Z,15.30
2023-03-19T22:06:41.042Z,7.60
2023-03-19T22:09:12.751Z,11.60
2023-03-19T22:11:44.340Z,7.40
2023-03-19T22:14:17.988Z,10.10
2023-03-19T22:16:47.756Z,11.00
2023-03-19T22:19:19.421Z,11.20
2023-03-19T22:21:48.291Z,10.40
2023-03-19T22:24:16.955Z,8.30
2023-03-19T22:26:47.007Z,10.30
2023-03-19T22:29:25.810Z,10.40
2023-03-19T22:31:55.527Z,12.50
2023-03-19T22:34:26.252Z,14.30
2023-03-19T22:36:55.951Z,10.70
2023-03-19T22:39:26.395Z,10.60
2023-03-19T22:41:55.961Z,7.70
2023-03-19T22:44:27.343Z,8.80
2023-03-19T22:46:56.432Z,7.20
2023-03-19T22:49:25.210Z,10.90
2023-03-19T22:51:53.944Z,10.00
2023-03-19T22:54:22.318Z,13.70
2023-03-19T22:56:50.895Z,16.40
2023-03-19T22:59:21.928Z,14.60
2023-03-19T23:01:50.387Z,21.20
2023-03-19T23:04:45.339Z,18.30
2023-03-19T23:07:14.968Z,22.30
2023-03-19T23:09:44.754Z,23.70
2023-03-19T23:12:15.912Z,19.30
2023-03-19T23:14:44.430Z,17.60
2023-03-19T23:17:19.918Z,18.80
2023-03-19T23:19:52.195Z,21.50
2023-03-19T23:22:21.076Z,17.30
2023-03-19T23:24:49.540Z,14.70
2023-03-19T23:27:23.424Z,16.60
2023-03-19T23:29:52.669Z,14.40
2023-03-19T23:32:22.196Z,16.80
2023-03-19T23:35:00.948Z,11.30
2023-03-19T23:37:31.135Z,13.00
2023-03-19T23:40:01.976Z,18.50
2023-03-19T23:42:31.780Z,18.50
2023-03-19T23:45:05.465Z,17.80
2023-03-19T23:47:34.911Z,14.30
2023-03-19T23:50:04.089Z,21.10
2023-03-19T23:52:34.795Z,16.70
2023-03-19T23:55:03.201Z,20.00
2023-03-19T23:57:33.391Z,14.60
